createdAt,value
2022-08-21T00:00:01.664Z,7.40
2022-08-21T00:01:01.618Z,7.70
2022-08-21T00:02:01.646Z,7.90
2022-08-21T00:03:01.655Z,7.90
2022-08-21T00:04:01.644Z,7.20
2022-08-21T00:05:01.608Z,7.80
2022-08-21T00:06:01.624Z,7.90
2022-08-21T00:07:01.583Z,7.60
2022-08-21T00:08:01.540Z,8.00
2022-08-21T00:09:06.075Z,7.70
2022-08-21T00:10:03.655Z,7.70
2022-08-21T00:11:01.656Z,7.50
2022-08-21T00:12:02.083Z,8.20
2022-08-21T00:13:01.479Z,7.40
2022-08-21T00:14:01.512Z,7.50
2022-08-21T00:15:01.465Z,7.40
2022-08-21T00:16:01.456Z,7.70
2022-08-21T00:17:01.458Z,7.10
2022-08-21T00:18:01.456Z,6.80
2022-08-21T00:19:01.654Z,7.10
2022-08-21T00:20:01.443Z,7.00
2022-08-21T00:21:01.397Z,6.70
2022-08-21T00:22:02.422Z,7.40
2022-08-21T00:23:01.452Z,7.10
2022-08-21T00:24:01.388Z,7.50
2022-08-21T00:25:01.434Z,7.20
2022-08-21T00:26:01.516Z,6.80
2022-08-21T00:27:01.352Z,7.30
2022-08-21T00:28:01.370Z,6.50
2022-08-21T00:29:01.351Z,6.70
2022-08-21T00:30:01.312Z,7.10
2022-08-21T00:31:01.348Z,7.40
2022-08-21T00:32:01.285Z,7.00
2022-08-21T00:33:01.292Z,7.10
2022-08-21T00:34:01.357Z,7.20
2022-08-21T00:35:02.143Z,6.80
2022-08-21T00:36:01.272Z,7.10
2022-08-21T00:37:01.269Z,7.10
2022-08-21T00:38:01.281Z,7.20
2022-08-21T00:39:01.185Z,7.70
2022-08-21T00:40:01.256Z,7.70
2022-08-21T00:41:13.412Z,7.40
2022-08-21T00:42:02.210Z,7.50
2022-08-21T00:43:01.243Z,7.50
2022-08-21T00:44:01.197Z,7.40
2022-08-21T00:45:01.135Z,7.30
2022-08-21T00:46:02.031Z,7.50
2022-08-21T00:47:01.177Z,7.30
2022-08-21T00:48:01.202Z,7.40
2022-08-21T00:49:01.126Z,7.40
2022-08-21T00:50:01.102Z,7.40
2022-08-21T00:51:02.073Z,7.20
2022-08-21T00:52:01.128Z,7.20
2022-08-21T00:53:01.040Z,7.10
2022-08-21T00:54:01.050Z,7.60
2022-08-21T00:55:01.096Z,7.60
2022-08-21T00:56:01.019Z,7.90
2022-08-21T00:57:01.027Z,8.30
2022-08-21T00:58:01.605Z,7.90
2022-08-21T00:59:00.986Z,7.70
2022-08-21T01:00:00.987Z,7.80
2022-08-21T01:01:02.251Z,7.50
2022-08-21T01:02:01.007Z,7.50
2022-08-21T01:03:00.933Z,7.60
2022-08-21T01:04:00.919Z,7.10
2022-08-21T01:05:00.917Z,7.60
2022-08-21T01:06:00.946Z,7.70
2022-08-21T01:07:01.660Z,7.30
2022-08-21T01:08:00.918Z,8.10
2022-08-21T01:09:00.898Z,7.30
2022-08-21T01:10:00.870Z,6.60
2022-08-21T01:11:00.842Z,6.00
2022-08-21T01:12:00.875Z,6.20
2022-08-21T01:13:00.872Z,6.80
2022-08-21T01:14:00.860Z,6.80
2022-08-21T01:15:00.791Z,6.30
2022-08-21T01:16:00.803Z,6.80
2022-08-21T01:17:00.807Z,7.10
2022-08-21T01:18:01.496Z,7.10
2022-08-21T01:19:00.796Z,7.00
2022-08-21T01:20:00.754Z,7.10
2022-08-21T01:21:00.751Z,7.30
2022-08-21T01:22:00.797Z,6.70
2022-08-21T01:23:00.717Z,6.70
2022-08-21T01:24:00.832Z,7.00
2022-08-21T01:25:00.715Z,6.50
2022-08-21T01:26:00.705Z,6.50
2022-08-21T01:27:00.716Z,6.60
2022-08-21T01:28:00.709Z,7.00
2022-08-21T01:29:00.677Z,7.10
2022-08-21T01:30:00.647Z,7.40
2022-08-21T01:31:00.658Z,6.90
2022-08-21T01:32:00.661Z,6.80
2022-08-21T01:33:00.628Z,6.80
2022-08-21T01:34:00.617Z,6.60
2022-08-21T01:35:00.647Z,6.60
2022-08-21T01:36:00.563Z,7.00
2022-08-21T01:37:00.569Z,7.70
2022-08-21T01:38:00.583Z,6.80
2022-08-21T01:39:00.540Z,6.60
2022-08-21T01:40:00.631Z,6.70
2022-08-21T01:41:00.532Z,7.30
2022-08-21T01:42:00.517Z,6.80
2022-08-21T01:43:00.512Z,7.00
2022-08-21T01:44:00.521Z,7.00
2022-08-21T01:45:00.514Z,6.90
2022-08-21T01:46:00.458Z,6.80
2022-08-21T01:47:00.494Z,7.10
2022-08-21T01:48:00.480Z,7.20
2022-08-21T01:49:00.424Z,7.00
2022-08-21T01:50:00.414Z,6.50
2022-08-21T01:51:00.421Z,7.00
2022-08-21T01:52:00.412Z,6.60
2022-08-21T01:53:00.401Z,6.60
2022-08-21T01:54:00.440Z,6.80
2022-08-21T01:55:00.393Z,6.60
2022-08-21T01:56:00.357Z,6.50
2022-08-21T01:57:00.369Z,6.60
2022-08-21T01:58:00.341Z,6.90
2022-08-21T01:59:00.348Z,6.30
2022-08-21T02:00:00.346Z,6.70
2022-08-21T02:01:00.360Z,6.70
2022-08-21T02:02:00.306Z,6.50
2022-08-21T02:03:00.290Z,6.60
2022-08-21T02:04:00.270Z,6.60
2022-08-21T02:05:00.324Z,6.30
2022-08-21T02:06:00.247Z,6.60
2022-08-21T02:07:00.262Z,6.50
2022-08-21T02:08:01.042Z,7.10
2022-08-21T02:09:00.257Z,6.40
2022-08-21T02:10:00.234Z,6.10
2022-08-21T02:11:00.187Z,6.50
2022-08-21T02:12:00.234Z,7.00
2022-08-21T02:13:00.345Z,6.60
2022-08-21T02:14:00.158Z,6.60
2022-08-21T02:15:00.142Z,6.90
2022-08-21T02:16:00.143Z,6.90
2022-08-21T02:17:05.075Z,6.10
2022-08-21T02:18:01.126Z,6.90
2022-08-21T02:19:00.105Z,6.30
2022-08-21T02:20:00.143Z,6.60
2022-08-21T02:21:00.111Z,6.90
2022-08-21T02:22:00.099Z,6.90
2022-08-21T02:23:00.153Z,7.00
2022-08-21T02:24:00.072Z,7.10
2022-08-21T02:25:00.058Z,7.10
2022-08-21T02:26:00.047Z,6.80
2022-08-21T02:27:00.034Z,6.90
2022-08-21T02:28:00.032Z,6.70
2022-08-21T02:28:59.979Z,7.30
2022-08-21T02:30:00.035Z,6.90
2022-08-21T02:31:00.010Z,7.20
2022-08-21T02:31:59.961Z,6.40
2022-08-21T02:33:00.007Z,7.20
2022-08-21T02:33:59.964Z,7.20
2022-08-21T02:34:59.927Z,7.30
2022-08-21T02:36:00.075Z,7.00
2022-08-21T02:37:00.138Z,7.20
2022-08-21T02:37:59.935Z,7.20
2022-08-21T02:38:59.911Z,7.00
2022-08-21T02:39:59.910Z,7.20
2022-08-21T02:40:59.901Z,7.50
2022-08-21T02:41:59.893Z,7.60
2022-08-21T02:42:59.853Z,7.60
2022-08-21T02:43:59.884Z,7.10
2022-08-21T02:44:59.859Z,6.80
2022-08-21T02:45:59.855Z,6.60
2022-08-21T02:46:59.860Z,6.60
2022-08-21T02:47:59.792Z,6.90
2022-08-21T02:48:59.805Z,6.70
2022-08-21T02:49:59.796Z,6.70
2022-08-21T02:50:59.772Z,6.70
2022-08-21T02:51:59.774Z,6.90
2022-08-21T02:53:00.032Z,6.80
2022-08-21T02:53:59.889Z,6.80
2022-08-21T02:54:59.729Z,6.60
2022-08-21T02:55:59.706Z,6.50
2022-08-21T02:56:59.682Z,7.10
2022-08-21T02:57:59.697Z,6.40
2022-08-21T02:58:59.708Z,6.70
2022-08-21T02:59:59.685Z,6.90
2022-08-21T03:00:59.642Z,6.60
2022-08-21T03:01:59.743Z,6.90
2022-08-21T03:02:59.705Z,6.70
2022-08-21T03:03:59.646Z,7.00
2022-08-21T03:04:59.640Z,6.60
2022-08-21T03:05:59.600Z,6.80
2022-08-21T03:06:59.599Z,6.90
2022-08-21T03:07:59.608Z,6.40
2022-08-21T03:08:59.578Z,7.00
2022-08-21T03:09:59.544Z,6.80
2022-08-21T03:10:59.542Z,6.60
2022-08-21T03:11:59.533Z,7.10
2022-08-21T03:12:59.643Z,6.70
2022-08-21T03:13:59.495Z,6.60
2022-08-21T03:14:59.509Z,6.40
2022-08-21T03:15:59.478Z,6.80
2022-08-21T03:16:59.473Z,6.40
2022-08-21T03:17:59.478Z,6.80
2022-08-21T03:18:59.445Z,7.10
2022-08-21T03:19:59.444Z,6.80
2022-08-21T03:20:59.443Z,6.90
2022-08-21T03:21:59.418Z,6.90
2022-08-21T03:22:59.657Z,6.70
2022-08-21T03:23:59.395Z,6.60
2022-08-21T03:24:59.393Z,6.70
2022-08-21T03:25:59.377Z,6.70
2022-08-21T03:26:59.390Z,6.50
2022-08-21T03:27:59.355Z,6.80
2022-08-21T03:28:59.325Z,6.50
2022-08-21T03:29:59.349Z,6.50
2022-08-21T03:30:59.329Z,6.80
2022-08-21T03:31:59.270Z,6.80
2022-08-21T03:32:59.497Z,6.40
2022-08-21T03:33:59.279Z,6.20
2022-08-21T03:34:59.367Z,6.70
2022-08-21T03:35:59.272Z,6.50
2022-08-21T03:36:59.218Z,6.80
2022-08-21T03:37:59.222Z,7.00
2022-08-21T03:38:59.198Z,7.40
2022-08-21T03:39:59.255Z,7.40
2022-08-21T03:40:59.210Z,7.40
2022-08-21T03:41:59.200Z,7.40
2022-08-21T03:42:59.350Z,6.50
2022-08-21T03:43:59.182Z,7.30
2022-08-21T03:44:59.175Z,7.40
2022-08-21T03:45:59.155Z,7.00
2022-08-21T03:46:59.091Z,6.90
2022-08-21T03:47:59.158Z,6.90
2022-08-21T03:48:59.091Z,6.60
2022-08-21T03:49:59.051Z,6.10
2022-08-21T03:50:59.106Z,6.30
2022-08-21T03:51:59.734Z,6.20
2022-08-21T03:52:59.233Z,6.90
2022-08-21T03:53:59.066Z,6.30
2022-08-21T03:54:59.034Z,6.20
2022-08-21T03:55:59.072Z,6.00
2022-08-21T03:56:59.082Z,6.30
2022-08-21T03:57:59.028Z,6.40
2022-08-21T03:59:00.000Z,6.10
2022-08-21T03:59:58.971Z,6.20
2022-08-21T04:00:58.992Z,6.00
2022-08-21T04:01:58.992Z,6.10
2022-08-21T04:02:59.076Z,5.80
2022-08-21T04:03:58.940Z,6.10
2022-08-21T04:04:58.920Z,5.60
2022-08-21T04:05:58.908Z,5.90
2022-08-21T04:06:58.860Z,5.90
2022-08-21T04:07:58.856Z,5.90
2022-08-21T04:08:58.868Z,6.50
2022-08-21T04:09:58.896Z,6.80
2022-08-21T04:10:58.832Z,6.80
2022-08-21T04:11:58.811Z,7.00
2022-08-21T04:12:59.025Z,7.10
2022-08-21T04:13:58.821Z,6.80
2022-08-21T04:14:58.791Z,6.70
2022-08-21T04:15:58.780Z,6.60
2022-08-21T04:16:58.753Z,6.20
2022-08-21T04:17:58.772Z,6.50
2022-08-21T04:18:58.759Z,7.00
2022-08-21T04:19:58.739Z,7.00
2022-08-21T04:20:58.720Z,7.10
2022-08-21T04:21:58.680Z,7.00
2022-08-21T04:22:58.902Z,6.90
2022-08-21T04:23:58.695Z,7.30
2022-08-21T04:24:58.692Z,6.70
2022-08-21T04:25:58.657Z,6.70
2022-08-21T04:26:58.670Z,6.00
2022-08-21T04:27:58.627Z,6.10
2022-08-21T04:28:58.630Z,6.20
2022-08-21T04:29:58.613Z,6.10
2022-08-21T04:30:58.572Z,6.20
2022-08-21T04:31:58.585Z,6.70
2022-08-21T04:32:58.739Z,6.70
2022-08-21T04:33:58.562Z,6.70
2022-08-21T04:34:58.526Z,7.00
2022-08-21T04:35:58.549Z,7.60
2022-08-21T04:36:58.509Z,7.00
2022-08-21T04:37:58.526Z,7.20
2022-08-21T04:38:58.526Z,6.40
2022-08-21T04:39:58.568Z,6.80
2022-08-21T04:40:58.460Z,6.60
2022-08-21T04:41:58.477Z,7.00
2022-08-21T04:42:58.504Z,6.50
2022-08-21T04:43:58.989Z,7.00
2022-08-21T04:44:58.442Z,7.20
2022-08-21T04:45:58.400Z,6.80
2022-08-21T04:46:58.390Z,6.50
2022-08-21T04:47:58.394Z,6.60
2022-08-21T04:48:58.379Z,6.50
2022-08-21T04:49:58.373Z,7.10
2022-08-21T04:50:58.355Z,7.10
2022-08-21T04:51:58.373Z,7.00
2022-08-21T04:52:58.432Z,7.40
2022-08-21T04:53:58.356Z,7.90
2022-08-21T04:54:58.312Z,8.20
2022-08-21T04:55:58.317Z,8.10
2022-08-21T04:56:58.282Z,8.70
2022-08-21T04:57:58.253Z,8.40
2022-08-21T04:58:58.297Z,8.90
2022-08-21T04:59:58.245Z,10.30
2022-08-21T05:00:58.281Z,10.40
2022-08-21T05:01:58.394Z,12.00
2022-08-21T05:02:58.319Z,12.10
2022-08-21T05:03:58.241Z,12.20
2022-08-21T05:04:58.193Z,11.10
2022-08-21T05:05:58.182Z,12.20
2022-08-21T05:06:58.234Z,11.90
2022-08-21T05:07:58.221Z,12.30
2022-08-21T05:09:01.595Z,12.60
2022-08-21T05:09:58.136Z,12.60
2022-08-21T05:11:00.447Z,12.90
2022-08-21T05:11:59.121Z,12.00
2022-08-21T05:12:58.239Z,11.50
2022-08-21T05:13:58.069Z,11.00
2022-08-21T05:14:58.093Z,10.50
2022-08-21T05:15:58.062Z,10.80
2022-08-21T05:16:58.062Z,10.40
2022-08-21T05:18:01.317Z,10.70
2022-08-21T05:18:58.030Z,9.80
2022-08-21T05:19:58.070Z,9.70
2022-08-21T05:20:57.990Z,9.40
2022-08-21T05:21:58.002Z,9.80
2022-08-21T05:22:58.130Z,8.90
2022-08-21T05:23:58.070Z,8.70
2022-08-21T05:24:57.971Z,8.80
2022-08-21T05:25:57.970Z,9.00
2022-08-21T05:26:57.933Z,8.20
2022-08-21T05:27:58.236Z,7.80
2022-08-21T05:28:58.642Z,8.40
2022-08-21T05:29:57.944Z,8.60
2022-08-21T05:30:57.878Z,8.60
2022-08-21T05:31:57.858Z,8.50
2022-08-21T05:32:58.078Z,9.10
2022-08-21T05:33:57.862Z,9.20
2022-08-21T05:34:57.875Z,9.10
2022-08-21T05:35:57.854Z,8.70
2022-08-21T05:36:57.782Z,8.10
2022-08-21T05:37:57.831Z,8.70
2022-08-21T05:38:57.799Z,8.80
2022-08-21T05:40:20.430Z,9.40
2022-08-21T05:40:58.850Z,9.90
2022-08-21T05:41:57.751Z,9.40
2022-08-21T05:42:58.096Z,9.70
2022-08-21T05:43:57.715Z,9.50
2022-08-21T05:44:57.983Z,10.20
2022-08-21T05:45:57.751Z,9.80
2022-08-21T05:46:57.707Z,10.60
2022-08-21T05:47:57.660Z,10.90
2022-08-21T05:48:57.660Z,12.10
2022-08-21T05:49:57.655Z,12.30
2022-08-21T05:50:57.674Z,13.30
2022-08-21T05:51:57.624Z,13.30
2022-08-21T05:53:04.379Z,12.90
2022-08-21T05:53:57.599Z,13.20
2022-08-21T05:54:57.647Z,14.10
2022-08-21T05:55:57.584Z,13.60
2022-08-21T05:56:57.580Z,14.70
2022-08-21T05:57:57.567Z,15.40
2022-08-21T05:58:57.568Z,15.80
2022-08-21T05:59:57.568Z,16.00
2022-08-21T06:00:57.539Z,17.10
2022-08-21T06:01:58.882Z,18.20
2022-08-21T06:02:57.693Z,18.00
2022-08-21T06:03:57.501Z,17.10
2022-08-21T06:04:57.469Z,17.00
2022-08-21T06:05:57.459Z,15.30
2022-08-21T06:06:57.471Z,15.30
2022-08-21T06:07:57.477Z,15.10
2022-08-21T06:08:58.120Z,14.50
2022-08-21T06:09:57.404Z,15.20
2022-08-21T06:10:57.417Z,15.50
2022-08-21T06:11:57.380Z,15.10
2022-08-21T06:12:57.581Z,16.30
2022-08-21T06:13:57.383Z,14.50
2022-08-21T06:14:57.365Z,16.70
2022-08-21T06:15:57.400Z,14.30
2022-08-21T06:16:57.336Z,14.30
2022-08-21T06:17:57.348Z,14.40
2022-08-21T06:19:02.094Z,13.40
2022-08-21T06:19:59.338Z,13.20
2022-08-21T06:20:57.310Z,13.60
2022-08-21T06:21:57.302Z,14.20
2022-08-21T06:22:57.522Z,14.00
2022-08-21T06:23:57.261Z,14.10
2022-08-21T06:24:57.258Z,14.60
2022-08-21T06:25:57.225Z,15.50
2022-08-21T06:26:57.202Z,14.80
2022-08-21T06:27:57.176Z,14.10
2022-08-21T06:28:57.216Z,14.70
2022-08-21T06:29:57.194Z,15.40
2022-08-21T06:30:57.220Z,14.00
2022-08-21T06:31:57.164Z,15.00
2022-08-21T06:32:57.228Z,14.80
2022-08-21T06:33:57.173Z,14.30
2022-08-21T06:34:57.137Z,15.90
2022-08-21T06:35:57.146Z,15.20
2022-08-21T06:36:57.077Z,15.20
2022-08-21T06:37:57.070Z,13.10
2022-08-21T06:38:57.995Z,14.40
2022-08-21T06:39:57.174Z,14.10
2022-08-21T06:40:57.096Z,14.60
2022-08-21T06:41:57.077Z,14.30
2022-08-21T06:42:57.081Z,14.80
2022-08-21T06:43:57.043Z,14.90
2022-08-21T06:44:57.005Z,14.20
2022-08-21T06:45:57.002Z,14.50
2022-08-21T06:46:57.030Z,13.50
2022-08-21T06:47:56.982Z,14.10
2022-08-21T06:48:56.963Z,14.80
2022-08-21T06:49:56.951Z,14.40
2022-08-21T06:50:56.929Z,14.30
2022-08-21T06:51:57.010Z,12.90
2022-08-21T06:52:56.966Z,13.10
2022-08-21T06:53:56.925Z,12.80
2022-08-21T06:54:56.906Z,13.20
2022-08-21T06:55:56.899Z,14.10
2022-08-21T06:56:57.894Z,12.30
2022-08-21T06:57:56.978Z,11.80
2022-08-21T06:58:56.851Z,12.80
2022-08-21T06:59:56.855Z,13.30
2022-08-21T07:01:00.805Z,12.40
2022-08-21T07:01:57.965Z,12.90
2022-08-21T07:02:57.047Z,13.00
2022-08-21T07:03:56.842Z,12.50
2022-08-21T07:04:56.807Z,13.10
2022-08-21T07:05:56.766Z,12.50
2022-08-21T07:06:56.775Z,12.50
2022-08-21T07:07:56.762Z,13.20
2022-08-21T07:08:58.850Z,12.40
2022-08-21T07:09:56.933Z,12.50
2022-08-21T07:10:56.835Z,13.10
2022-08-21T07:11:56.796Z,12.70
2022-08-21T07:13:01.009Z,13.10
2022-08-21T07:13:56.699Z,12.40
2022-08-21T07:14:57.711Z,12.50
2022-08-21T07:16:00.252Z,11.80
2022-08-21T07:16:58.635Z,12.30
2022-08-21T07:17:56.625Z,12.00
2022-08-21T07:18:56.633Z,12.00
2022-08-21T07:19:56.648Z,11.40
2022-08-21T07:20:57.621Z,12.10
2022-08-21T07:21:56.647Z,11.60
2022-08-21T07:22:56.719Z,11.80
2022-08-21T07:23:56.574Z,10.70
2022-08-21T07:24:56.559Z,12.00
2022-08-21T07:25:56.564Z,11.30
2022-08-21T07:26:56.535Z,11.40
2022-08-21T07:27:56.520Z,11.00
2022-08-21T07:28:56.537Z,11.00
2022-08-21T07:29:56.495Z,11.20
2022-08-21T07:30:56.563Z,11.40
2022-08-21T07:31:56.499Z,11.20
2022-08-21T07:32:56.504Z,10.70
2022-08-21T07:33:56.453Z,11.10
2022-08-21T07:34:56.531Z,11.00
2022-08-21T07:35:56.483Z,10.50
2022-08-21T07:36:56.444Z,10.90
2022-08-21T07:37:56.531Z,10.20
2022-08-21T07:38:56.420Z,10.40
2022-08-21T07:39:56.477Z,10.20
2022-08-21T07:40:56.413Z,9.50
2022-08-21T07:41:56.384Z,9.30
2022-08-21T07:42:56.470Z,9.70
2022-08-21T07:43:56.361Z,9.10
2022-08-21T07:44:56.452Z,9.00
2022-08-21T07:45:56.348Z,9.10
2022-08-21T07:46:56.320Z,8.80
2022-08-21T07:47:57.669Z,8.60
2022-08-21T07:48:57.334Z,8.40
2022-08-21T07:49:56.286Z,8.50
2022-08-21T07:50:56.292Z,8.60
2022-08-21T07:51:56.343Z,8.80
2022-08-21T07:52:57.200Z,8.60
2022-08-21T07:53:56.281Z,8.10
2022-08-21T07:54:56.231Z,8.70
2022-08-21T07:55:56.207Z,8.00
2022-08-21T07:56:56.216Z,7.70
2022-08-21T07:57:56.201Z,7.90
2022-08-21T07:58:56.261Z,7.60
2022-08-21T07:59:56.208Z,7.80
2022-08-21T08:00:56.221Z,8.80
2022-08-21T08:01:56.180Z,8.20
2022-08-21T08:02:56.177Z,7.90
2022-08-21T08:03:56.163Z,7.90
2022-08-21T08:04:56.121Z,8.20
2022-08-21T08:05:57.116Z,8.10
2022-08-21T08:06:56.113Z,7.50
2022-08-21T08:07:56.096Z,7.30
2022-08-21T08:08:56.116Z,7.20
2022-08-21T08:09:56.080Z,7.30
2022-08-21T08:10:56.061Z,7.70
2022-08-21T08:11:56.124Z,7.50
2022-08-21T08:12:56.168Z,7.60
2022-08-21T08:13:56.019Z,7.60
2022-08-21T08:14:56.516Z,8.10
2022-08-21T08:15:56.031Z,7.30
2022-08-21T08:16:56.030Z,7.30
2022-08-21T08:17:56.041Z,7.70
2022-08-21T08:18:55.965Z,7.60
2022-08-21T08:19:55.994Z,6.70
2022-08-21T08:20:55.996Z,7.50
2022-08-21T08:21:55.974Z,6.70
2022-08-21T08:22:55.963Z,7.10
2022-08-21T08:23:55.915Z,6.80
2022-08-21T08:24:55.932Z,6.50
2022-08-21T08:25:55.977Z,6.50
2022-08-21T08:26:55.874Z,6.70
2022-08-21T08:27:55.886Z,6.30
2022-08-21T08:28:55.902Z,6.90
2022-08-21T08:29:55.875Z,6.00
2022-08-21T08:30:55.846Z,6.70
2022-08-21T08:31:56.722Z,5.90
2022-08-21T08:32:55.897Z,6.40
2022-08-21T08:33:55.781Z,6.00
2022-08-21T08:34:55.785Z,6.00
2022-08-21T08:35:55.933Z,6.30
2022-08-21T08:36:55.765Z,6.10
2022-08-21T08:37:55.748Z,6.00
2022-08-21T08:38:55.766Z,6.10
2022-08-21T08:39:55.831Z,5.60
2022-08-21T08:40:55.746Z,6.00
2022-08-21T08:41:57.971Z,5.90
2022-08-21T08:42:55.721Z,5.60
2022-08-21T08:43:55.729Z,5.50
2022-08-21T08:44:55.719Z,5.10
2022-08-21T08:45:55.717Z,5.70
2022-08-21T08:46:57.508Z,5.60
2022-08-21T08:47:55.692Z,5.60
2022-08-21T08:48:55.714Z,5.00
2022-08-21T08:49:55.685Z,5.10
2022-08-21T08:50:55.691Z,5.60
2022-08-21T08:51:55.655Z,5.40
2022-08-21T08:52:55.716Z,5.40
2022-08-21T08:53:55.634Z,4.70
2022-08-21T08:54:55.602Z,4.90
2022-08-21T08:55:55.574Z,5.00
2022-08-21T08:56:55.554Z,5.50
2022-08-21T08:57:55.562Z,5.20
2022-08-21T08:58:55.523Z,4.60
2022-08-21T08:59:56.087Z,5.00
2022-08-21T09:00:55.591Z,5.40
2022-08-21T09:01:55.526Z,4.80
2022-08-21T09:02:55.568Z,4.90
2022-08-21T09:03:55.578Z,5.30
2022-08-21T09:04:55.495Z,4.90
2022-08-21T09:05:55.477Z,4.90
2022-08-21T09:06:55.449Z,4.50
2022-08-21T09:07:55.481Z,4.40
2022-08-21T09:08:55.417Z,4.80
2022-08-21T09:09:55.425Z,4.80
2022-08-21T09:10:55.429Z,4.40
2022-08-21T09:11:55.432Z,4.00
2022-08-21T09:12:55.443Z,4.40
2022-08-21T09:13:55.393Z,4.30
2022-08-21T09:14:55.408Z,4.10
2022-08-21T09:15:55.368Z,4.50
2022-08-21T09:16:55.389Z,4.10
2022-08-21T09:17:55.365Z,5.00
2022-08-21T09:18:55.330Z,4.20
2022-08-21T09:19:55.341Z,4.30
2022-08-21T09:20:55.305Z,4.10
2022-08-21T09:21:55.303Z,4.30
2022-08-21T09:22:55.436Z,4.40
2022-08-21T09:23:55.273Z,4.30
2022-08-21T09:24:55.257Z,4.10
2022-08-21T09:25:55.257Z,4.00
2022-08-21T09:26:55.262Z,3.70
2022-08-21T09:27:55.242Z,4.20
2022-08-21T09:28:55.197Z,3.60
2022-08-21T09:29:55.211Z,3.90
2022-08-21T09:30:56.246Z,4.40
2022-08-21T09:31:55.204Z,4.00
2022-08-21T09:32:55.278Z,3.80
2022-08-21T09:33:55.165Z,3.70
2022-08-21T09:34:55.162Z,3.70
2022-08-21T09:35:55.162Z,4.20
2022-08-21T09:36:55.155Z,3.90
2022-08-21T09:37:55.125Z,4.10
2022-08-21T09:38:55.085Z,3.70
2022-08-21T09:39:55.161Z,3.70
2022-08-21T09:40:55.110Z,3.80
2022-08-21T09:41:55.067Z,3.60
2022-08-21T09:42:55.986Z,3.90
2022-08-21T09:43:55.064Z,3.60
2022-08-21T09:44:55.043Z,4.10
2022-08-21T09:45:55.022Z,4.60
2022-08-21T09:46:55.062Z,4.30
2022-08-21T09:47:55.004Z,4.40
2022-08-21T09:48:55.072Z,4.50
2022-08-21T09:49:54.994Z,4.20
2022-08-21T09:50:55.009Z,4.00
2022-08-21T09:51:55.004Z,3.90
2022-08-21T09:52:55.052Z,4.50
2022-08-21T09:53:55.043Z,3.60
2022-08-21T09:54:54.939Z,4.10
2022-08-21T09:55:54.979Z,4.20
2022-08-21T09:56:54.947Z,4.10
2022-08-21T09:57:54.927Z,4.00
2022-08-21T09:58:54.931Z,4.40
2022-08-21T09:59:54.891Z,4.30
2022-08-21T10:00:54.907Z,3.80
2022-08-21T10:01:54.869Z,4.10
2022-08-21T10:02:54.877Z,3.80
2022-08-21T10:03:54.887Z,3.80
2022-08-21T10:04:54.857Z,4.30
2022-08-21T10:05:54.791Z,3.60
2022-08-21T10:06:56.931Z,3.90
2022-08-21T10:07:54.820Z,3.80
2022-08-21T10:08:54.796Z,4.00
2022-08-21T10:09:55.492Z,3.90
2022-08-21T10:10:56.324Z,4.00
2022-08-21T10:11:54.780Z,3.80
2022-08-21T10:12:54.751Z,4.10
2022-08-21T10:13:54.740Z,3.90
2022-08-21T10:14:54.768Z,3.80
2022-08-21T10:15:54.753Z,3.90
2022-08-21T10:16:55.571Z,3.60
2022-08-21T10:17:54.728Z,3.80
2022-08-21T10:18:54.726Z,3.70
2022-08-21T10:19:54.664Z,3.90
2022-08-21T10:20:54.703Z,3.50
2022-08-21T10:21:54.736Z,3.70
2022-08-21T10:22:54.684Z,3.70
2022-08-21T10:23:55.637Z,3.50
2022-08-21T10:24:54.588Z,3.60
2022-08-21T10:25:56.428Z,5.30
2022-08-21T10:26:55.652Z,3.80
2022-08-21T10:27:54.615Z,3.60
2022-08-21T10:28:54.588Z,3.70
2022-08-21T10:29:54.604Z,3.60
2022-08-21T10:30:54.532Z,3.70
2022-08-21T10:31:54.617Z,3.50
2022-08-21T10:32:54.626Z,3.70
2022-08-21T10:33:54.512Z,3.40
2022-08-21T10:34:54.589Z,3.40
2022-08-21T10:35:54.481Z,3.00
2022-08-21T10:36:54.481Z,3.20
2022-08-21T10:37:54.556Z,3.30
2022-08-21T10:39:12.195Z,3.40
2022-08-21T10:39:56.509Z,3.20
2022-08-21T10:40:54.547Z,3.50
2022-08-21T10:41:54.437Z,3.60
2022-08-21T10:42:54.544Z,3.10
2022-08-21T10:43:54.573Z,3.60
2022-08-21T10:44:54.408Z,3.20
2022-08-21T10:45:54.385Z,3.60
2022-08-21T10:46:54.380Z,3.30
2022-08-21T10:47:57.825Z,3.70
2022-08-21T10:48:55.340Z,3.50
2022-08-21T10:49:54.417Z,3.50
2022-08-21T10:50:54.311Z,3.60
2022-08-21T10:51:54.349Z,3.20
2022-08-21T10:52:54.318Z,3.10
2022-08-21T10:53:55.045Z,3.10
2022-08-21T10:54:54.305Z,3.80
2022-08-21T10:55:54.293Z,3.50
2022-08-21T10:56:54.248Z,3.90
2022-08-21T10:57:54.279Z,3.30
2022-08-21T10:58:54.286Z,3.80
2022-08-21T10:59:54.245Z,3.30
2022-08-21T11:00:54.279Z,3.20
2022-08-21T11:01:54.213Z,3.30
2022-08-21T11:02:54.287Z,3.30
2022-08-21T11:03:54.225Z,3.00
2022-08-21T11:04:54.181Z,3.60
2022-08-21T11:05:54.207Z,3.30
2022-08-21T11:06:54.194Z,3.40
2022-08-21T11:07:55.239Z,3.50
2022-08-21T11:08:54.158Z,3.40
2022-08-21T11:09:54.138Z,3.30
2022-08-21T11:10:59.469Z,3.40
2022-08-21T11:11:59.303Z,3.50
2022-08-21T11:12:55.164Z,3.70
2022-08-21T11:13:54.086Z,3.20
2022-08-21T11:14:54.138Z,3.30
2022-08-21T11:15:54.122Z,3.30
2022-08-21T11:16:54.055Z,3.20
2022-08-21T11:17:54.054Z,3.10
2022-08-21T11:18:54.035Z,3.10
2022-08-21T11:19:54.059Z,3.00
2022-08-21T11:20:53.991Z,2.90
2022-08-21T11:21:54.003Z,3.00
2022-08-21T11:22:55.520Z,2.90
2022-08-21T11:23:54.989Z,2.60
2022-08-21T11:24:54.036Z,2.90
2022-08-21T11:25:54.020Z,3.10
2022-08-21T11:26:53.967Z,3.10
2022-08-21T11:27:53.939Z,2.80
2022-08-21T11:28:54.660Z,3.10
2022-08-21T11:29:53.934Z,2.80
2022-08-21T11:30:54.034Z,3.10
2022-08-21T11:31:53.907Z,3.10
2022-08-21T11:32:53.899Z,3.10
2022-08-21T11:33:53.911Z,3.10
2022-08-21T11:34:53.895Z,3.40
2022-08-21T11:35:53.809Z,3.20
2022-08-21T11:36:53.883Z,3.00
2022-08-21T11:37:53.875Z,3.10
2022-08-21T11:38:54.664Z,3.00
2022-08-21T11:39:53.836Z,2.90
2022-08-21T11:40:53.796Z,2.90
2022-08-21T11:41:53.821Z,2.80
2022-08-21T11:42:53.787Z,3.10
2022-08-21T11:43:53.759Z,3.10
2022-08-21T11:44:53.736Z,3.10
2022-08-21T11:45:53.767Z,3.40
2022-08-21T11:46:53.705Z,3.00
2022-08-21T11:47:54.044Z,3.00
2022-08-21T11:48:54.804Z,2.90
2022-08-21T11:49:53.794Z,3.00
2022-08-21T11:50:54.424Z,3.40
2022-08-21T11:51:53.756Z,3.10
2022-08-21T11:52:53.658Z,3.30
2022-08-21T11:53:54.425Z,3.30
2022-08-21T11:54:54.701Z,2.80
2022-08-21T11:55:53.644Z,3.10
2022-08-21T11:56:53.601Z,2.80
2022-08-21T11:57:53.628Z,3.10
2022-08-21T11:58:53.641Z,3.30
2022-08-21T11:59:53.620Z,3.20
2022-08-21T12:00:53.634Z,3.00
2022-08-21T12:01:53.622Z,2.80
2022-08-21T12:02:54.162Z,2.70
2022-08-21T12:03:53.565Z,3.00
2022-08-21T12:04:53.556Z,2.80
2022-08-21T12:05:53.517Z,3.00
2022-08-21T12:06:53.520Z,2.80
2022-08-21T12:07:54.714Z,3.40
2022-08-21T12:08:53.623Z,2.90
2022-08-21T12:09:53.460Z,3.70
2022-08-21T12:10:53.521Z,3.10
2022-08-21T12:11:53.473Z,3.00
2022-08-21T12:12:53.473Z,3.00
2022-08-21T12:13:53.446Z,3.10
2022-08-21T12:14:53.497Z,3.10
2022-08-21T12:15:53.405Z,2.90
2022-08-21T12:16:53.401Z,2.90
2022-08-21T12:17:53.385Z,3.10
2022-08-21T12:18:53.421Z,3.00
2022-08-21T12:19:53.395Z,2.60
2022-08-21T12:20:53.429Z,2.80
2022-08-21T12:21:53.389Z,2.90
2022-08-21T12:22:53.989Z,2.90
2022-08-21T12:23:54.113Z,2.80
2022-08-21T12:24:53.318Z,3.10
2022-08-21T12:25:53.514Z,3.00
2022-08-21T12:26:53.298Z,2.90
2022-08-21T12:27:53.467Z,3.20
2022-08-21T12:28:53.284Z,2.80
2022-08-21T12:29:53.349Z,3.00
2022-08-21T12:30:57.995Z,2.90
2022-08-21T12:31:54.242Z,2.90
2022-08-21T12:32:53.258Z,3.20
2022-08-21T12:33:54.107Z,2.90
2022-08-21T12:34:53.253Z,2.80
2022-08-21T12:35:53.290Z,3.00
2022-08-21T12:36:53.251Z,2.90
2022-08-21T12:37:53.302Z,2.80
2022-08-21T12:38:53.154Z,2.70
2022-08-21T12:39:53.215Z,3.10
2022-08-21T12:40:53.153Z,2.80
2022-08-21T12:41:53.182Z,2.70
2022-08-21T12:42:58.866Z,2.90
2022-08-21T12:43:55.127Z,2.90
2022-08-21T12:44:53.109Z,2.90
2022-08-21T12:45:53.215Z,2.80
2022-08-21T12:46:53.110Z,2.50
2022-08-21T12:47:54.122Z,2.50
2022-08-21T12:48:53.079Z,3.00
2022-08-21T12:49:53.567Z,3.10
2022-08-21T12:50:53.090Z,2.80
2022-08-21T12:51:53.073Z,2.80
2022-08-21T12:52:53.043Z,2.80
2022-08-21T12:53:52.990Z,2.90
2022-08-21T12:54:53.056Z,2.90
2022-08-21T12:55:53.040Z,3.10
2022-08-21T12:56:53.012Z,2.90
2022-08-21T12:57:53.047Z,2.90
2022-08-21T12:58:52.996Z,2.80
2022-08-21T12:59:52.991Z,2.70
2022-08-21T13:00:52.968Z,3.00
2022-08-21T13:01:52.982Z,2.70
2022-08-21T13:02:52.959Z,3.00
2022-08-21T13:03:57.113Z,2.80
2022-08-21T13:04:53.935Z,2.70
2022-08-21T13:05:52.911Z,3.10
2022-08-21T13:06:52.884Z,2.90
2022-08-21T13:07:52.891Z,2.60
2022-08-21T13:08:52.888Z,2.60
2022-08-21T13:09:52.880Z,3.00
2022-08-21T13:10:52.859Z,2.90
2022-08-21T13:11:52.851Z,2.70
2022-08-21T13:12:52.817Z,2.90
2022-08-21T13:13:52.907Z,2.70